createdAt,value
2022-11-24T00:01:06.528Z,5.10
2022-11-24T00:03:33.283Z,6.00
2022-11-24T00:06:11.114Z,5.65
2022-11-24T00:08:39.695Z,5.20
2022-11-24T00:11:08.870Z,4.97
2022-11-24T00:13:36.280Z,4.00
2022-11-24T00:16:08.068Z,3.67
2022-11-24T00:18:34.594Z,3.60
2022-11-24T00:21:01.124Z,5.38
2022-11-24T00:23:27.688Z,3.47
2022-11-24T00:25:54.240Z,4.43
2022-11-24T00:28:20.751Z,6.25
2022-11-24T00:30:47.307Z,3.28
2022-11-24T00:33:13.839Z,6.05
2022-11-24T00:35:40.341Z,4.75
2022-11-24T00:38:06.835Z,5.10
2022-11-24T00:40:35.091Z,3.03
2022-11-24T00:43:01.854Z,4.38
2022-11-24T00:45:28.359Z,3.42
2022-11-24T00:47:54.818Z,3.30
2022-11-24T00:50:21.331Z,4.60
2022-11-24T00:52:47.814Z,4.75
2022-11-24T00:55:14.360Z,3.42
2022-11-24T00:57:40.876Z,6.00
2022-11-24T01:00:08.297Z,3.63
2022-11-24T01:02:34.897Z,6.10
2022-11-24T01:05:03.272Z,3.10
2022-11-24T01:07:30.912Z,3.65
2022-11-24T01:09:57.461Z,3.55
2022-11-24T01:12:23.990Z,6.22
2022-11-24T01:14:50.481Z,4.43
2022-11-24T01:17:17.043Z,4.68
2022-11-24T01:19:43.541Z,3.38
2022-11-24T01:22:10.062Z,3.22
2022-11-24T01:24:36.706Z,3.42
2022-11-24T01:27:03.271Z,3.60
2022-11-24T01:29:29.949Z,3.97
2022-11-24T01:31:56.438Z,5.35
2022-11-24T01:34:23.063Z,2.80
2022-11-24T01:36:49.593Z,4.57
2022-11-24T01:39:16.193Z,4.28
2022-11-24T01:41:42.718Z,4.40
2022-11-24T01:44:28.710Z,4.15
2022-11-24T01:47:05.184Z,3.10
2022-11-24T01:49:44.767Z,3.67
2022-11-24T01:52:20.146Z,5.25
2022-11-24T01:54:51.833Z,4.90
2022-11-24T01:57:25.975Z,4.47
2022-11-24T01:59:57.459Z,4.90
2022-11-24T02:02:26.201Z,5.05
2022-11-24T02:04:53.155Z,4.40
2022-11-24T02:07:20.039Z,5.30
2022-11-24T02:09:59.486Z,3.20
2022-11-24T02:12:27.321Z,6.70
2022-11-24T02:14:54.977Z,4.45
2022-11-24T02:17:21.796Z,5.53
2022-11-24T02:19:57.205Z,4.90
2022-11-24T02:23:19.381Z,5.20
2022-11-24T02:26:00.589Z,5.28
2022-11-24T02:28:30.721Z,5.75
2022-11-24T02:30:59.856Z,6.95
2022-11-24T02:33:27.123Z,3.05
2022-11-24T02:35:53.671Z,4.32
2022-11-24T02:38:29.666Z,4.22
2022-11-24T02:40:56.543Z,3.90
2022-11-24T02:43:24.056Z,3.50
2022-11-24T02:45:50.645Z,5.80
2022-11-24T02:48:17.262Z,6.45
2022-11-24T02:50:43.805Z,6.45
2022-11-24T02:53:10.358Z,7.90
2022-11-24T02:55:36.991Z,5.95
2022-11-24T02:58:04.028Z,4.88
2022-11-24T03:00:30.660Z,7.20
2022-11-24T03:02:57.294Z,4.97
2022-11-24T03:05:23.933Z,5.82
2022-11-24T03:07:50.439Z,4.65
2022-11-24T03:10:17.151Z,7.32
2022-11-24T03:12:43.789Z,5.68
2022-11-24T03:15:11.314Z,4.97
2022-11-24T03:17:37.831Z,5.07
2022-11-24T03:20:05.422Z,6.13
2022-11-24T03:22:32.182Z,6.40
2022-11-24T03:24:59.258Z,3.90
2022-11-24T03:27:26.064Z,4.75
2022-11-24T03:29:52.619Z,6.50
2022-11-24T03:32:19.133Z,6.88
2022-11-24T03:34:45.644Z,3.33
2022-11-24T03:37:12.190Z,4.03
2022-11-24T03:39:38.734Z,3.80
2022-11-24T03:42:05.456Z,3.72
2022-11-24T03:44:32.159Z,5.50
2022-11-24T03:46:58.848Z,5.32
2022-11-24T03:49:25.340Z,5.90
2022-11-24T03:51:51.882Z,2.58
2022-11-24T03:54:18.420Z,4.68
2022-11-24T03:56:44.917Z,4.38
2022-11-24T03:59:11.419Z,5.00
2022-11-24T04:01:37.948Z,5.07
2022-11-24T04:04:04.616Z,4.72
2022-11-24T04:06:31.102Z,4.43
2022-11-24T04:08:57.599Z,4.50
2022-11-24T04:11:42.481Z,4.07
2022-11-24T04:14:13.412Z,3.05
2022-11-24T04:16:40.629Z,5.80
2022-11-24T04:19:07.515Z,5.50
2022-11-24T04:21:34.049Z,3.40
2022-11-24T04:24:00.562Z,2.47
2022-11-24T04:26:27.625Z,4.35
2022-11-24T04:28:54.127Z,4.20
2022-11-24T04:31:20.697Z,2.53
2022-11-24T04:33:47.258Z,2.03
2022-11-24T04:36:13.793Z,2.42
2022-11-24T04:39:19.623Z,2.50
2022-11-24T04:41:26.785Z,2.28
2022-11-24T04:43:53.301Z,3.20
2022-11-24T04:46:19.853Z,2.60
2022-11-24T04:48:46.408Z,2.50
2022-11-24T04:51:14.800Z,3.00
2022-11-24T04:53:41.725Z,1.98
2022-11-24T04:56:08.412Z,2.53
2022-11-24T04:58:35.262Z,1.77
2022-11-24T05:01:01.995Z,1.88
2022-11-24T05:03:28.489Z,1.67
2022-11-24T05:05:58.804Z,1.52
2022-11-24T05:08:25.347Z,0.90
2022-11-24T05:10:51.821Z,1.58
2022-11-24T05:13:18.346Z,0.75
2022-11-24T05:15:44.901Z,0.82
2022-11-24T05:18:14.810Z,1.17
2022-11-24T05:20:41.415Z,3.05
2022-11-24T05:23:08.725Z,0.80
2022-11-24T05:25:35.872Z,0.95
2022-11-24T05:28:04.912Z,1.20
2022-11-24T05:30:32.288Z,1.55
2022-11-24T05:32:58.867Z,0.65
2022-11-24T05:35:25.450Z,0.88
2022-11-24T05:37:51.971Z,1.00
2022-11-24T05:40:18.580Z,0.77
2022-11-24T05:42:48.066Z,0.68
2022-11-24T05:45:18.038Z,0.52
2022-11-24T05:47:45.442Z,0.93
2022-11-24T05:50:14.269Z,0.65
2022-11-24T05:52:41.371Z,0.50
2022-11-24T05:55:09.434Z,0.65
2022-11-24T05:57:36.128Z,0.63
2022-11-24T06:00:07.372Z,0.60
2022-11-24T06:02:33.964Z,0.50
2022-11-24T06:05:00.603Z,0.50
2022-11-24T06:07:27.193Z,0.35
2022-11-24T06:09:53.777Z,1.25
2022-11-24T06:12:20.496Z,0.40
2022-11-24T06:14:47.109Z,1.42
2022-11-24T06:17:13.659Z,0.57
2022-11-24T06:19:42.183Z,0.45
2022-11-24T06:22:08.984Z,5.65
2022-11-24T06:24:35.700Z,1.38
2022-11-24T06:27:02.491Z,1.67
2022-11-24T06:29:29.013Z,0.70
2022-11-24T06:31:55.545Z,0.55
2022-11-24T06:34:22.138Z,0.75
2022-11-24T06:36:48.688Z,1.00
2022-11-24T06:39:15.358Z,1.33
2022-11-24T06:41:41.833Z,1.27
2022-11-24T06:44:08.491Z,1.58
2022-11-24T06:46:35.093Z,0.88
2022-11-24T06:49:02.366Z,0.50
2022-11-24T06:51:29.078Z,1.23
2022-11-24T06:53:55.911Z,0.98
2022-11-24T06:56:22.798Z,2.30
2022-11-24T06:58:51.450Z,0.30
2022-11-24T07:01:27.187Z,0.88
2022-11-24T07:03:55.257Z,6.18
2022-11-24T07:06:23.597Z,0.57
2022-11-24T07:08:50.790Z,0.93
2022-11-24T07:11:20.205Z,1.67
2022-11-24T07:13:47.261Z,0.52
2022-11-24T07:16:19.654Z,0.60
2022-11-24T07:18:48.635Z,0.45
2022-11-24T07:21:15.524Z,1.02
2022-11-24T07:23:42.057Z,0.60
2022-11-24T07:28:37.491Z,0.80
2022-11-24T07:31:09.621Z,0.60
2022-11-24T07:33:36.362Z,0.80
2022-11-24T07:36:05.003Z,1.25
2022-11-24T07:38:32.146Z,0.85
2022-11-24T07:41:01.876Z,0.70
2022-11-24T07:43:30.525Z,1.90
2022-11-24T07:45:57.146Z,4.45
2022-11-24T07:48:23.745Z,0.63
2022-11-24T07:50:55.571Z,0.93
2022-11-24T07:53:22.749Z,0.40
2022-11-24T07:55:56.985Z,0.63
2022-11-24T07:58:27.604Z,1.20
2022-11-24T08:00:57.865Z,0.57
2022-11-24T08:03:25.411Z,0.77
2022-11-24T08:06:22.072Z,0.70
2022-11-24T08:08:42.896Z,0.47
2022-11-24T08:11:12.753Z,4.57
2022-11-24T08:13:39.628Z,0.65
2022-11-24T08:16:08.304Z,0.85
2022-11-24T08:18:35.764Z,0.43
2022-11-24T08:21:02.535Z,0.93
2022-11-24T08:23:29.703Z,0.55
2022-11-24T08:25:57.290Z,0.95
2022-11-24T08:28:24.621Z,0.75
2022-11-24T08:30:51.555Z,0.52
2022-11-24T08:33:18.147Z,0.50
2022-11-24T08:35:44.867Z,0.50
2022-11-24T08:38:11.408Z,1.35
2022-11-24T08:40:37.933Z,0.40
2022-11-24T08:43:04.432Z,1.95
2022-11-24T08:45:31.125Z,0.60
2022-11-24T08:47:58.226Z,0.55
2022-11-24T08:50:25.871Z,0.40
2022-11-24T08:52:53.742Z,0.52
2022-11-24T08:55:20.663Z,0.73
2022-11-24T08:57:47.182Z,0.52
2022-11-24T09:00:14.230Z,0.73
2022-11-24T09:02:42.530Z,0.98
2022-11-24T09:05:28.707Z,4.70
2022-11-24T09:07:55.655Z,0.57
2022-11-24T09:10:22.378Z,1.15
2022-11-24T09:12:49.007Z,0.52
2022-11-24T09:15:16.532Z,1.90
2022-11-24T09:17:43.645Z,2.13
2022-11-24T09:20:10.269Z,0.77
2022-11-24T09:22:38.100Z,0.82
2022-11-24T09:25:06.762Z,1.02
2022-11-24T09:27:33.733Z,0.90
2022-11-24T09:30:00.230Z,2.90
2022-11-24T09:32:29.580Z,1.90
2022-11-24T09:34:56.150Z,1.25
2022-11-24T09:37:23.683Z,1.63
2022-11-24T09:39:52.460Z,1.25
2022-11-24T09:42:37.648Z,2.97
2022-11-24T09:45:19.940Z,2.05
2022-11-24T09:48:03.821Z,1.65
2022-11-24T09:50:34.800Z,2.20
2022-11-24T09:53:13.436Z,1.27
2022-11-24T09:55:43.299Z,2.35
2022-11-24T09:58:18.671Z,2.40
2022-11-24T10:00:48.566Z,2.17
2022-11-24T10:03:45.133Z,2.25
2022-11-24T10:06:28.021Z,3.90
2022-11-24T10:09:03.867Z,3.58
2022-11-24T10:11:43.462Z,3.15
2022-11-24T10:14:19.002Z,1.30
2022-11-24T10:16:51.533Z,1.70
2022-11-24T10:19:49.744Z,7.53
2022-11-24T10:22:34.569Z,2.20
2022-11-24T10:25:21.369Z,1.95
2022-11-24T10:27:59.947Z,3.70
2022-11-24T10:30:27.140Z,2.90
2022-11-24T10:33:01.394Z,2.00
2022-11-24T10:35:38.545Z,2.72
2022-11-24T10:38:30.133Z,1.70
2022-11-24T10:41:02.017Z,3.30
2022-11-24T10:43:29.334Z,3.15
2022-11-24T10:46:11.796Z,4.80
2022-11-24T10:48:45.033Z,3.63
2022-11-24T10:51:48.692Z,3.75
2022-11-24T10:54:21.518Z,1.97
2022-11-24T10:56:51.270Z,2.90
2022-11-24T10:59:35.886Z,2.00
2022-11-24T11:02:04.399Z,4.88
2022-11-24T11:04:36.278Z,2.88
2022-11-24T11:07:16.394Z,4.15
2022-11-24T11:09:43.014Z,2.10
2022-11-24T11:12:43.235Z,3.78
2022-11-24T11:15:26.464Z,3.85
2022-11-24T11:17:57.571Z,2.80
2022-11-24T11:20:33.833Z,2.53
2022-11-24T11:23:13.403Z,2.45
2022-11-24T11:25:41.159Z,4.80
2022-11-24T11:28:27.800Z,2.17
2022-11-24T11:31:18.136Z,2.83
2022-11-24T11:34:15.983Z,2.10
2022-11-24T11:36:51.413Z,2.45
2022-11-24T11:39:31.713Z,3.78
2022-11-24T11:42:45.313Z,3.22
2022-11-24T11:45:18.547Z,3.60
2022-11-24T11:47:52.573Z,1.10
2022-11-24T11:51:21.066Z,1.33
2022-11-24T11:53:46.457Z,1.58
2022-11-24T11:56:30.243Z,0.80
2022-11-24T11:59:15.709Z,0.80
2022-11-24T12:02:00.497Z,0.95
2022-11-24T12:04:46.940Z,2.47
2022-11-24T12:07:19.395Z,1.67
2022-11-24T12:10:11.880Z,2.03
2022-11-24T12:12:49.988Z,1.73
2022-11-24T12:15:37.863Z,1.70
2022-11-24T12:18:55.141Z,2.10
2022-11-24T12:21:26.841Z,1.42
2022-11-24T12:24:17.908Z,1.95
2022-11-24T12:26:52.624Z,1.27
2022-11-24T12:29:27.818Z,1.35
2022-11-24T12:32:10.068Z,1.42
2022-11-24T12:34:39.494Z,1.98
2022-11-24T12:37:18.691Z,2.42
2022-11-24T12:40:03.853Z,0.80
2022-11-24T12:42:50.470Z,1.70
2022-11-24T12:45:22.815Z,1.92
2022-11-24T12:48:07.397Z,2.53
2022-11-24T12:50:39.029Z,1.63
2022-11-24T12:53:22.011Z,2.50
2022-11-24T12:55:48.751Z,4.05
2022-11-24T12:58:39.493Z,3.38
2022-11-24T13:01:35.049Z,2.03
2022-11-24T13:04:42.649Z,3.90
2022-11-24T13:07:49.173Z,2.92
2022-11-24T13:10:46.494Z,1.75
2022-11-24T13:13:15.648Z,2.70
2022-11-24T13:16:28.390Z,2.45
2022-11-24T13:18:49.246Z,2.00
2022-11-24T13:21:30.826Z,3.30
2022-11-24T13:24:06.973Z,1.85
2022-11-24T13:26:42.622Z,2.60
2022-11-24T13:29:27.523Z,2.88
2022-11-24T13:31:55.276Z,2.95
2022-11-24T13:34:43.206Z,2.63
2022-11-24T13:37:34.968Z,5.55
2022-11-24T13:40:11.824Z,5.35
2022-11-24T13:43:02.063Z,3.28
2022-11-24T13:45:41.542Z,2.45
2022-11-24T13:48:20.474Z,3.10
2022-11-24T13:50:50.578Z,7.57
2022-11-24T13:53:35.013Z,2.70
2022-11-24T13:56:20.850Z,1.33
2022-11-24T13:59:18.733Z,2.45
2022-11-24T14:01:46.877Z,3.75
2022-11-24T14:04:33.672Z,4.43
2022-11-24T14:07:09.499Z,6.75
2022-11-24T14:09:45.757Z,1.92
2022-11-24T14:12:25.225Z,4.90
2022-11-24T14:14:56.834Z,3.03
2022-11-24T14:17:28.547Z,1.55
2022-11-24T14:19:57.411Z,4.05
2022-11-24T14:22:35.231Z,4.47
2022-11-24T14:25:03.120Z,3.88
2022-11-24T14:27:32.699Z,2.88
2022-11-24T14:30:02.105Z,2.35
2022-11-24T14:32:29.437Z,4.03
2022-11-24T14:34:57.001Z,4.45
2022-11-24T14:37:23.763Z,4.63
2022-11-24T14:39:50.301Z,5.90
2022-11-24T14:42:22.111Z,4.05
2022-11-24T14:45:03.834Z,3.33
2022-11-24T14:47:32.238Z,3.22
2022-11-24T14:50:16.558Z,3.05
2022-11-24T14:52:47.054Z,7.75
2022-11-24T14:55:24.393Z,4.43
2022-11-24T14:57:51.020Z,3.85
2022-11-24T15:00:33.197Z,3.75
2022-11-24T15:03:02.748Z,3.03
2022-11-24T15:05:53.463Z,5.63
2022-11-24T15:08:20.505Z,4.32
2022-11-24T15:10:47.360Z,3.15
2022-11-24T15:13:19.416Z,4.28
2022-11-24T15:16:02.027Z,3.92
2022-11-24T15:18:36.598Z,4.47
2022-11-24T15:21:03.525Z,3.85
2022-11-24T15:23:35.182Z,7.15
2022-11-24T15:26:01.621Z,4.80
2022-11-24T15:28:29.695Z,3.38
2022-11-24T15:31:09.833Z,5.32
2022-11-24T15:33:36.419Z,3.95
2022-11-24T15:36:03.053Z,3.65
2022-11-24T15:38:29.580Z,7.57
2022-11-24T15:40:59.632Z,3.30
2022-11-24T15:43:33.863Z,4.63
2022-11-24T15:46:01.883Z,2.95
2022-11-24T15:48:28.521Z,3.67
2022-11-24T15:50:56.315Z,4.63
2022-11-24T15:53:28.070Z,3.67
2022-11-24T15:55:57.146Z,3.97
2022-11-24T15:58:23.901Z,4.47
2022-11-24T16:00:53.410Z,4.22
2022-11-24T16:06:12.799Z,3.65
2022-11-24T16:08:39.377Z,4.88
2022-11-24T16:11:06.275Z,4.63
2022-11-24T16:13:32.819Z,2.63
2022-11-24T16:15:59.616Z,2.70
2022-11-24T16:18:26.143Z,3.42
2022-11-24T16:20:52.634Z,2.83
2022-11-24T16:23:19.400Z,2.90
2022-11-24T16:25:45.938Z,3.63
2022-11-24T16:28:12.419Z,5.65
2022-11-24T16:30:38.925Z,3.15
2022-11-24T16:33:08.259Z,2.72
2022-11-24T16:35:34.759Z,5.53
2022-11-24T16:38:01.294Z,4.13
2022-11-24T16:40:28.617Z,10.23
2022-11-24T16:42:56.264Z,14.18
2022-11-24T16:45:22.850Z,10.68
2022-11-24T16:47:49.417Z,11.18
2022-11-24T16:50:16.057Z,13.07
2022-11-24T16:52:42.574Z,10.85
2022-11-24T16:55:09.807Z,8.90
2022-11-24T16:57:36.988Z,7.90
2022-11-24T17:00:05.339Z,6.10
2022-11-24T17:02:33.534Z,6.05
2022-11-24T17:05:00.065Z,9.00
2022-11-24T17:07:26.642Z,10.02
2022-11-24T17:09:53.182Z,10.52
2022-11-24T17:12:19.702Z,7.78
2022-11-24T17:15:03.102Z,5.35
2022-11-24T17:17:32.676Z,4.15
2022-11-24T17:19:59.700Z,4.68
2022-11-24T17:22:26.178Z,6.65
2022-11-24T17:24:52.803Z,4.07
2022-11-24T17:27:19.348Z,6.53
2022-11-24T17:29:45.839Z,5.28
2022-11-24T17:32:12.342Z,5.57
2022-11-24T17:34:38.876Z,4.80
2022-11-24T17:37:05.601Z,4.75
2022-11-24T17:39:32.501Z,10.07
2022-11-24T17:41:59.063Z,24.45
2022-11-24T17:44:25.590Z,14.65
2022-11-24T17:46:52.216Z,12.07
2022-11-24T17:49:20.876Z,13.90
2022-11-24T17:51:50.463Z,8.40
2022-11-24T17:54:45.458Z,6.00
2022-11-24T17:57:04.424Z,7.90
2022-11-24T17:59:30.921Z,4.40
2022-11-24T18:01:57.423Z,6.03
2022-11-24T18:04:24.006Z,6.63
2022-11-24T18:06:50.496Z,4.97
2022-11-24T18:09:16.992Z,5.32
2022-11-24T18:11:43.621Z,3.92
2022-11-24T18:14:10.137Z,6.18
2022-11-24T18:16:36.723Z,4.20
2022-11-24T18:19:09.074Z,3.28
2022-11-24T18:21:40.979Z,6.22
2022-11-24T18:24:12.239Z,4.15
2022-11-24T18:26:42.452Z,5.10
2022-11-24T18:29:10.158Z,5.22
2022-11-24T18:31:37.298Z,4.65
2022-11-24T18:34:06.098Z,4.75
2022-11-24T18:36:33.085Z,8.00
2022-11-24T18:39:07.611Z,5.05
2022-11-24T18:41:34.703Z,3.45
2022-11-24T18:44:07.901Z,4.43
2022-11-24T18:46:34.732Z,2.60
2022-11-24T18:49:01.302Z,4.82
2022-11-24T18:51:28.033Z,6.38
2022-11-24T18:53:54.713Z,6.90
2022-11-24T18:56:21.297Z,4.25
2022-11-24T18:58:47.869Z,7.28
2022-11-24T19:01:16.906Z,4.07
2022-11-24T19:03:49.322Z,2.35
2022-11-24T19:06:31.856Z,3.45
2022-11-24T19:09:00.095Z,2.92
2022-11-24T19:11:33.674Z,2.35
2022-11-24T19:14:01.233Z,1.48
2022-11-24T19:16:27.820Z,1.50
2022-11-24T19:19:00.043Z,2.75
2022-11-24T19:21:28.689Z,2.13
2022-11-24T19:23:58.556Z,2.85
2022-11-24T19:26:27.910Z,3.40
2022-11-24T19:28:54.416Z,4.47
2022-11-24T19:31:21.031Z,5.65
2022-11-24T19:33:48.738Z,6.18
2022-11-24T19:36:20.524Z,4.78
2022-11-24T19:38:57.877Z,6.68
2022-11-24T19:41:30.106Z,10.00
2022-11-24T19:43:57.974Z,5.05
2022-11-24T19:46:27.271Z,4.30
2022-11-24T19:48:55.468Z,6.28
2022-11-24T19:51:24.887Z,5.50
2022-11-24T19:53:51.570Z,7.25
2022-11-24T19:56:24.084Z,4.68
2022-11-24T19:58:52.008Z,6.43
2022-11-24T20:01:20.143Z,2.72
2022-11-24T20:03:49.536Z,1.10
2022-11-24T20:06:16.389Z,1.23
2022-11-24T20:08:43.160Z,1.55
2022-11-24T20:11:15.328Z,0.55
2022-11-24T20:13:43.862Z,1.10
2022-11-24T20:16:26.257Z,1.17
2022-11-24T20:18:54.571Z,2.17
2022-11-24T20:21:22.531Z,1.38
2022-11-24T20:23:55.463Z,2.40
2022-11-24T20:26:23.890Z,3.92
2022-11-24T20:28:51.973Z,2.17
2022-11-24T20:31:31.699Z,4.30
2022-11-24T20:34:00.436Z,0.82
2022-11-24T20:36:29.022Z,2.05
2022-11-24T20:38:56.212Z,1.40
2022-11-24T20:41:25.784Z,0.50
2022-11-24T20:43:53.915Z,1.35
2022-11-24T20:46:23.410Z,1.85
2022-11-24T20:48:50.657Z,1.95
2022-11-24T20:51:22.668Z,1.17
2022-11-24T20:53:54.678Z,1.02
2022-11-24T20:56:27.124Z,1.02
2022-11-24T20:58:54.201Z,3.65
2022-11-24T21:01:24.065Z,0.85
2022-11-24T21:04:00.895Z,1.13
2022-11-24T21:06:28.556Z,1.05
2022-11-24T21:09:00.503Z,0.70
2022-11-24T21:11:30.506Z,0.88
2022-11-24T21:13:57.508Z,0.40
2022-11-24T21:16:29.208Z,1.40
2022-11-24T21:19:01.684Z,0.60
2022-11-24T21:21:34.614Z,1.98
2022-11-24T21:24:02.822Z,1.50
2022-11-24T21:26:29.721Z,1.00
2022-11-24T21:28:57.379Z,1.52
2022-11-24T21:31:24.404Z,1.00
2022-11-24T21:33:53.016Z,0.50
2022-11-24T21:36:22.431Z,1.00
2022-11-24T21:38:57.681Z,1.60
2022-11-24T21:41:27.297Z,1.88
2022-11-24T21:43:57.573Z,1.58
2022-11-24T21:46:25.043Z,0.90
2022-11-24T21:48:51.628Z,0.82
2022-11-24T21:51:20.359Z,1.25
2022-11-24T21:53:47.620Z,1.00
2022-11-24T21:56:19.956Z,2.45
2022-11-24T21:58:49.191Z,3.53
2022-11-24T22:01:18.715Z,3.53
2022-11-24T22:03:46.246Z,3.10
2022-11-24T22:06:13.620Z,1.17
2022-11-24T22:08:40.359Z,1.23
2022-11-24T22:11:11.312Z,1.90
2022-11-24T22:13:37.947Z,2.15
